createdAt,value
2022-12-20T00:00:53.901Z,0.60
2022-12-20T00:02:27.092Z,0.60
2022-12-20T00:04:02.391Z,0.60
2022-12-20T00:05:37.724Z,0.60
2022-12-20T00:07:10.800Z,0.60
2022-12-20T00:08:45.235Z,0.60
2022-12-20T00:10:18.415Z,0.60
2022-12-20T00:11:51.945Z,0.60
2022-12-20T00:13:25.403Z,0.50
2022-12-20T00:14:58.500Z,0.50
2022-12-20T00:16:31.129Z,0.50
2022-12-20T00:18:04.419Z,0.50
2022-12-20T00:19:37.705Z,0.50
2022-12-20T00:21:12.800Z,0.50
2022-12-20T00:22:45.887Z,0.50
2022-12-20T00:24:24.035Z,0.50
2022-12-20T00:26:02.958Z,0.50
2022-12-20T00:27:36.213Z,0.50
2022-12-20T00:29:10.727Z,0.50
2022-12-20T00:30:42.828Z,0.50
2022-12-20T00:32:17.189Z,0.60
2022-12-20T00:33:52.341Z,0.60
2022-12-20T00:35:25.415Z,0.60
2022-12-20T00:36:58.601Z,0.60
2022-12-20T00:38:31.779Z,0.60
2022-12-20T00:40:07.256Z,0.70
2022-12-20T00:41:40.345Z,0.70
2022-12-20T00:43:13.392Z,0.60
2022-12-20T00:44:47.854Z,0.60
2022-12-20T00:46:23.407Z,0.60
2022-12-20T00:47:55.582Z,0.70
2022-12-20T00:49:28.666Z,0.60
2022-12-20T00:51:01.910Z,0.70
2022-12-20T00:52:35.048Z,0.70
2022-12-20T00:54:09.903Z,0.70
2022-12-20T00:55:42.292Z,0.80
2022-12-20T00:57:15.381Z,0.70
2022-12-20T00:58:48.849Z,0.70
2022-12-20T01:00:23.618Z,0.70
2022-12-20T01:01:56.803Z,0.70
2022-12-20T01:03:31.308Z,0.70
2022-12-20T01:05:04.723Z,0.70
2022-12-20T01:06:38.297Z,0.70
2022-12-20T01:08:10.393Z,0.70
2022-12-20T01:09:43.486Z,0.70
2022-12-20T01:11:17.539Z,0.70
2022-12-20T01:12:50.906Z,0.70
2022-12-20T01:14:24.080Z,0.70
2022-12-20T01:16:04.365Z,0.80
2022-12-20T01:17:37.506Z,0.80
2022-12-20T01:19:13.306Z,0.80
2022-12-20T01:20:45.402Z,0.80
2022-12-20T01:22:18.491Z,0.90
2022-12-20T01:23:50.964Z,0.90
2022-12-20T01:25:24.123Z,0.90
2022-12-20T01:26:58.822Z,0.80
2022-12-20T01:28:32.271Z,0.90
2022-12-20T01:30:05.936Z,0.90
2022-12-20T01:31:40.684Z,0.90
2022-12-20T01:33:13.881Z,0.90
2022-12-20T01:34:47.164Z,0.90
2022-12-20T01:36:22.244Z,0.90
2022-12-20T01:37:54.428Z,0.90
2022-12-20T01:39:27.625Z,0.90
2022-12-20T01:41:00.760Z,0.90
2022-12-20T01:42:33.892Z,0.90
2022-12-20T01:44:23.613Z,0.90
2022-12-20T01:45:56.736Z,0.90
2022-12-20T01:47:34.841Z,0.90
2022-12-20T01:49:12.986Z,0.90
2022-12-20T01:50:48.124Z,0.90
2022-12-20T01:52:26.561Z,1.00
2022-12-20T01:54:04.455Z,1.00
2022-12-20T01:55:37.230Z,1.00
2022-12-20T01:57:15.617Z,1.00
2022-12-20T01:58:52.634Z,1.00
2022-12-20T02:00:25.930Z,1.00
2022-12-20T02:02:03.002Z,1.00
2022-12-20T02:03:37.976Z,1.00
2022-12-20T02:05:10.336Z,1.00
2022-12-20T02:06:43.655Z,0.90
2022-12-20T02:08:20.033Z,0.90
2022-12-20T02:09:54.680Z,1.00
2022-12-20T02:11:51.775Z,1.00
2022-12-20T02:13:32.250Z,1.00
2022-12-20T02:15:18.617Z,0.90
2022-12-20T02:17:03.051Z,1.00
2022-12-20T02:18:44.614Z,1.00
2022-12-20T02:20:45.600Z,1.00
2022-12-20T02:22:30.571Z,1.00
2022-12-20T02:24:27.013Z,1.00
2022-12-20T02:26:17.095Z,1.00
2022-12-20T02:28:03.034Z,0.90
2022-12-20T02:29:40.447Z,1.00
2022-12-20T02:31:19.692Z,1.00
2022-12-20T02:33:00.344Z,1.00
2022-12-20T02:34:36.252Z,1.00
2022-12-20T02:36:09.863Z,0.90
2022-12-20T02:37:50.661Z,1.00
2022-12-20T02:39:26.968Z,1.00
2022-12-20T02:41:03.646Z,0.90
2022-12-20T02:42:36.950Z,1.00
2022-12-20T02:44:32.195Z,1.00
2022-12-20T02:46:04.858Z,1.00
2022-12-20T02:47:43.825Z,1.00
2022-12-20T02:49:21.680Z,1.10
2022-12-20T02:50:57.362Z,1.10
2022-12-20T02:52:31.858Z,1.10
2022-12-20T02:54:05.776Z,1.00
2022-12-20T02:55:47.097Z,1.10
2022-12-20T02:57:25.019Z,1.10
2022-12-20T02:59:02.377Z,1.10
2022-12-20T03:00:40.023Z,1.10
2022-12-20T03:02:13.153Z,1.10
2022-12-20T03:03:48.022Z,1.10
2022-12-20T03:05:23.540Z,1.10
2022-12-20T03:06:58.713Z,1.10
2022-12-20T03:08:31.984Z,1.10
2022-12-20T03:10:05.580Z,1.20
2022-12-20T03:11:38.648Z,1.10
2022-12-20T03:13:12.153Z,1.10
2022-12-20T03:14:52.834Z,1.10
2022-12-20T03:16:26.015Z,1.10
2022-12-20T03:17:58.126Z,1.10
2022-12-20T03:19:32.856Z,1.20
2022-12-20T03:21:06.245Z,1.10
2022-12-20T03:22:39.594Z,1.10
2022-12-20T03:24:13.666Z,1.20
2022-12-20T03:25:46.951Z,1.20
2022-12-20T03:27:28.055Z,1.20
2022-12-20T03:29:01.899Z,1.20
2022-12-20T03:30:35.065Z,1.10
2022-12-20T03:32:08.179Z,1.20
2022-12-20T03:33:41.255Z,1.20
2022-12-20T03:35:16.632Z,1.30
2022-12-20T03:36:50.130Z,1.30
2022-12-20T03:38:23.289Z,1.30
2022-12-20T03:39:56.387Z,1.30
2022-12-20T03:41:29.704Z,1.30
2022-12-20T03:43:03.494Z,1.30
2022-12-20T03:44:36.752Z,1.30
2022-12-20T03:46:10.173Z,1.30
2022-12-20T03:47:44.482Z,1.30
2022-12-20T03:49:18.606Z,1.30
2022-12-20T03:50:56.941Z,1.40
2022-12-20T03:52:30.085Z,1.30
2022-12-20T03:54:03.167Z,1.30
2022-12-20T03:55:55.056Z,1.40
2022-12-20T03:57:29.609Z,1.40
2022-12-20T03:59:03.465Z,1.40
2022-12-20T04:00:37.505Z,1.50
2022-12-20T04:02:30.680Z,1.50
2022-12-20T04:04:04.219Z,1.40
2022-12-20T04:05:37.577Z,1.50
2022-12-20T04:07:12.348Z,1.50
2022-12-20T04:08:50.839Z,1.50
2022-12-20T04:10:30.734Z,1.50
2022-12-20T04:12:03.815Z,1.50
2022-12-20T04:13:37.887Z,1.60
2022-12-20T04:15:12.339Z,1.50
2022-12-20T04:16:46.949Z,1.60
2022-12-20T04:18:20.028Z,1.50
2022-12-20T04:19:53.286Z,1.50
2022-12-20T04:21:28.806Z,1.50
2022-12-20T04:23:04.440Z,1.50
2022-12-20T04:24:37.630Z,1.40
2022-12-20T04:26:26.018Z,1.40
2022-12-20T04:27:59.185Z,1.30
2022-12-20T04:29:31.599Z,1.30
2022-12-20T04:31:05.772Z,1.30
2022-12-20T04:32:42.309Z,1.30
2022-12-20T04:34:16.265Z,1.30
2022-12-20T04:35:48.472Z,1.30
2022-12-20T04:37:21.580Z,1.30
2022-12-20T04:39:01.387Z,1.30
2022-12-20T04:40:38.444Z,1.20
2022-12-20T04:42:13.693Z,1.20
2022-12-20T04:43:46.915Z,1.20
2022-12-20T04:45:21.248Z,1.20
2022-12-20T04:46:55.277Z,1.20
2022-12-20T04:48:55.815Z,1.20
2022-12-20T04:50:22.904Z,1.20
2022-12-20T04:52:16.117Z,1.20
2022-12-20T04:53:48.369Z,1.20
2022-12-20T04:55:50.907Z,1.20
2022-12-20T04:57:24.122Z,1.20
2022-12-20T04:58:59.376Z,1.20
2022-12-20T05:00:33.419Z,1.20
2022-12-20T05:02:14.371Z,1.20
2022-12-20T05:03:54.915Z,1.20
2022-12-20T05:05:27.794Z,1.20
2022-12-20T05:07:02.210Z,1.10
2022-12-20T05:08:34.940Z,1.10
2022-12-20T05:10:09.356Z,1.10
2022-12-20T05:11:45.469Z,1.10
2022-12-20T05:13:17.750Z,1.10
2022-12-20T05:14:52.411Z,1.10
2022-12-20T05:16:28.305Z,1.10
2022-12-20T05:18:00.673Z,1.10
2022-12-20T05:19:41.977Z,1.20
2022-12-20T05:21:33.549Z,1.20
2022-12-20T05:23:23.948Z,1.10
2022-12-20T05:25:19.368Z,1.10
2022-12-20T05:26:55.236Z,1.10
2022-12-20T05:28:28.529Z,1.20
2022-12-20T05:30:01.625Z,1.10
2022-12-20T05:31:35.807Z,1.10
2022-12-20T05:33:09.716Z,1.10
2022-12-20T05:34:44.375Z,1.10
2022-12-20T05:36:17.993Z,1.20
2022-12-20T05:37:51.371Z,1.20
2022-12-20T05:39:27.186Z,1.20
2022-12-20T05:41:04.916Z,1.20
2022-12-20T05:42:40.276Z,1.20
2022-12-20T05:44:15.225Z,1.20
2022-12-20T05:45:52.843Z,1.20
2022-12-20T05:47:34.764Z,1.20
2022-12-20T05:49:13.279Z,1.20
2022-12-20T05:50:47.235Z,1.20
2022-12-20T05:52:40.729Z,1.20
2022-12-20T05:54:18.155Z,1.20
2022-12-20T05:55:58.097Z,1.20
2022-12-20T05:57:36.090Z,1.20
2022-12-20T05:59:10.603Z,1.20
2022-12-20T06:00:45.455Z,1.20
2022-12-20T06:02:18.636Z,1.10
2022-12-20T06:03:54.836Z,1.10
2022-12-20T06:05:28.006Z,1.10
2022-12-20T06:07:02.249Z,1.10
2022-12-20T06:08:36.336Z,1.10
2022-12-20T06:10:13.332Z,1.10
2022-12-20T06:11:55.369Z,1.10
2022-12-20T06:13:28.896Z,1.10
2022-12-20T06:15:03.320Z,1.10
2022-12-20T06:16:36.742Z,1.10
2022-12-20T06:18:11.677Z,1.10
2022-12-20T06:19:46.374Z,1.10
2022-12-20T06:21:22.270Z,1.10
2022-12-20T06:22:55.978Z,1.00
2022-12-20T06:24:29.182Z,1.00
2022-12-20T06:26:02.391Z,1.00
2022-12-20T06:27:39.004Z,1.00
2022-12-20T06:29:17.972Z,1.00
2022-12-20T06:30:59.973Z,1.00
2022-12-20T06:32:46.607Z,1.00
2022-12-20T06:34:20.511Z,1.00
2022-12-20T06:35:54.224Z,1.00
2022-12-20T06:37:29.173Z,1.10
2022-12-20T06:39:09.185Z,1.10
2022-12-20T06:40:45.979Z,1.10
2022-12-20T06:42:19.196Z,1.10
2022-12-20T06:43:53.188Z,1.10
2022-12-20T06:45:26.612Z,1.10
2022-12-20T06:47:01.711Z,1.10
2022-12-20T06:48:34.782Z,1.10
2022-12-20T06:50:09.321Z,1.20
2022-12-20T06:51:42.450Z,1.30
2022-12-20T06:53:16.611Z,1.30
2022-12-20T06:54:49.718Z,1.30
2022-12-20T06:56:22.784Z,1.30
2022-12-20T06:57:56.395Z,1.40
2022-12-20T06:59:29.772Z,1.40
2022-12-20T07:01:02.925Z,1.40
2022-12-20T07:02:37.697Z,1.40
2022-12-20T07:04:10.826Z,1.40
2022-12-20T07:05:43.862Z,1.40
2022-12-20T07:07:17.175Z,1.50
2022-12-20T07:08:50.220Z,1.50
2022-12-20T07:10:23.346Z,1.50
2022-12-20T07:11:56.394Z,1.50
2022-12-20T07:13:29.440Z,1.50
2022-12-20T07:15:02.491Z,1.50
2022-12-20T07:16:35.971Z,1.50
2022-12-20T07:18:11.523Z,1.50
2022-12-20T07:19:50.491Z,1.50
2022-12-20T07:21:24.128Z,1.50
2022-12-20T07:23:00.117Z,1.60
2022-12-20T07:24:33.221Z,1.50
2022-12-20T07:26:06.504Z,1.50
2022-12-20T07:27:39.692Z,1.50
2022-12-20T07:29:15.605Z,1.50
2022-12-20T07:30:49.365Z,1.50
2022-12-20T07:32:22.482Z,1.50
2022-12-20T07:33:57.010Z,1.40
2022-12-20T07:35:30.065Z,1.50
2022-12-20T07:37:03.130Z,1.50
2022-12-20T07:38:37.027Z,1.50
2022-12-20T07:40:12.552Z,1.50
2022-12-20T07:41:45.632Z,1.50
2022-12-20T07:43:22.889Z,1.50
2022-12-20T07:44:55.957Z,1.60
2022-12-20T07:46:29.445Z,1.50
2022-12-20T07:48:09.323Z,1.50
2022-12-20T07:49:46.864Z,1.50
2022-12-20T07:51:24.407Z,1.50
2022-12-20T07:52:58.612Z,1.50
2022-12-20T07:54:34.003Z,1.60
2022-12-20T07:56:09.662Z,1.60
2022-12-20T07:57:47.564Z,1.60
2022-12-20T07:59:25.207Z,1.60
2022-12-20T08:00:58.883Z,1.60
2022-12-20T08:02:36.369Z,1.60
2022-12-20T08:04:13.110Z,1.60
2022-12-20T08:05:51.131Z,1.70
2022-12-20T08:07:25.131Z,1.70
2022-12-20T08:09:02.267Z,1.70
2022-12-20T08:10:35.929Z,1.60
2022-12-20T08:12:11.701Z,1.60
2022-12-20T08:13:46.861Z,1.60
2022-12-20T08:15:23.031Z,1.60
2022-12-20T08:16:56.175Z,1.60
2022-12-20T08:18:29.309Z,1.60
2022-12-20T08:20:02.472Z,1.60
2022-12-20T08:21:37.063Z,1.60
2022-12-20T08:23:10.177Z,1.60
2022-12-20T08:24:43.241Z,1.60
2022-12-20T08:26:16.368Z,1.70
2022-12-20T08:27:49.585Z,1.60
2022-12-20T08:29:22.884Z,1.60
2022-12-20T08:31:02.217Z,1.70
2022-12-20T08:32:36.328Z,1.70
2022-12-20T08:34:10.916Z,1.70
2022-12-20T08:35:44.018Z,1.70
2022-12-20T08:37:19.144Z,1.70
2022-12-20T08:38:52.220Z,1.70
2022-12-20T08:40:25.367Z,1.80
2022-12-20T08:41:58.450Z,1.80
2022-12-20T08:43:31.637Z,1.80
2022-12-20T08:45:05.193Z,1.80
2022-12-20T08:46:38.826Z,1.80
2022-12-20T08:48:11.931Z,1.80
2022-12-20T08:49:47.883Z,1.80
2022-12-20T08:51:21.307Z,1.80
2022-12-20T08:52:55.735Z,1.80
2022-12-20T08:54:28.811Z,1.70
2022-12-20T08:56:06.619Z,1.70
2022-12-20T08:57:39.717Z,1.70
2022-12-20T08:59:13.079Z,1.70
2022-12-20T09:00:46.849Z,1.80
2022-12-20T09:02:20.555Z,1.80
2022-12-20T09:03:54.488Z,1.70
2022-12-20T09:05:27.678Z,1.80
2022-12-20T09:07:00.772Z,1.80
2022-12-20T09:08:37.006Z,1.90
2022-12-20T09:10:11.214Z,1.90
2022-12-20T09:11:44.271Z,1.90
2022-12-20T09:13:17.368Z,2.00
2022-12-20T09:14:50.461Z,2.00
2022-12-20T09:16:26.305Z,2.00
2022-12-20T09:18:00.267Z,2.00
2022-12-20T09:19:33.470Z,2.00
2022-12-20T09:21:08.602Z,2.10
2022-12-20T09:22:41.639Z,2.10
2022-12-20T09:24:16.152Z,2.20
2022-12-20T09:25:53.693Z,2.20
2022-12-20T09:27:27.224Z,2.30
2022-12-20T09:29:01.945Z,2.30
2022-12-20T09:30:35.077Z,2.20
2022-12-20T09:32:08.776Z,2.20
2022-12-20T09:33:42.519Z,2.20
2022-12-20T09:35:22.560Z,2.20
2022-12-20T09:36:56.193Z,2.40
2022-12-20T09:38:31.164Z,2.80
2022-12-20T09:40:06.552Z,3.10
2022-12-20T09:41:41.295Z,3.20
2022-12-20T09:43:15.759Z,3.30
2022-12-20T09:44:49.609Z,3.10
2022-12-20T09:46:24.708Z,2.90
2022-12-20T09:47:58.316Z,2.80
2022-12-20T09:49:36.076Z,2.90
2022-12-20T09:51:20.689Z,3.00
2022-12-20T09:53:03.874Z,3.00
2022-12-20T09:54:42.707Z,3.10
2022-12-20T09:56:21.915Z,3.20
2022-12-20T09:58:09.769Z,3.10
2022-12-20T09:59:49.582Z,3.00
2022-12-20T10:01:27.763Z,2.90
2022-12-20T10:03:09.969Z,2.80
2022-12-20T10:04:44.067Z,2.90
2022-12-20T10:06:26.347Z,2.90
2022-12-20T10:08:06.407Z,2.80
2022-12-20T10:09:54.353Z,2.70
2022-12-20T10:11:51.187Z,2.60
2022-12-20T10:13:46.556Z,2.50
2022-12-20T10:15:22.673Z,2.40
2022-12-20T10:17:01.854Z,2.40
2022-12-20T10:18:51.063Z,2.30
2022-12-20T10:20:33.913Z,2.30
2022-12-20T10:22:15.433Z,2.30
2022-12-20T10:24:01.051Z,2.30
2022-12-20T10:25:35.549Z,2.30
2022-12-20T10:27:15.903Z,2.20
2022-12-20T10:28:53.926Z,2.20
2022-12-20T10:30:29.745Z,2.30
2022-12-20T10:32:04.507Z,2.20
2022-12-20T10:33:37.812Z,2.20
2022-12-20T10:35:25.263Z,2.20
2022-12-20T10:37:13.132Z,2.20
2022-12-20T10:38:50.069Z,2.20
2022-12-20T10:40:53.444Z,2.20
2022-12-20T10:42:38.223Z,2.20
2022-12-20T10:44:21.226Z,2.20
2022-12-20T10:45:59.864Z,2.30
2022-12-20T10:47:41.646Z,2.20
2022-12-20T10:49:31.107Z,2.30
2022-12-20T10:51:16.807Z,2.20
2022-12-20T10:53:05.611Z,2.20
2022-12-20T10:54:40.110Z,2.20
2022-12-20T10:56:21.782Z,2.10
2022-12-20T10:57:56.300Z,2.10
2022-12-20T10:59:35.751Z,2.10
2022-12-20T11:01:14.576Z,2.10
2022-12-20T11:03:04.324Z,2.10
2022-12-20T11:04:40.429Z,2.00
2022-12-20T11:06:19.023Z,2.00
2022-12-20T11:09:55.709Z,2.00
2022-12-20T11:11:29.214Z,2.00
2022-12-20T11:13:04.565Z,2.00
2022-12-20T11:14:40.079Z,2.10
2022-12-20T11:16:36.313Z,2.10
2022-12-20T11:18:16.104Z,2.10
2022-12-20T11:20:18.364Z,2.10
2022-12-20T11:22:03.206Z,2.10
2022-12-20T11:23:42.272Z,2.20
2022-12-20T11:25:33.353Z,2.20
2022-12-20T11:27:17.139Z,2.30
2022-12-20T11:29:04.758Z,2.30
2022-12-20T11:30:46.201Z,2.30
2022-12-20T11:32:30.259Z,2.20
2022-12-20T11:34:17.911Z,2.20
2022-12-20T11:35:56.864Z,2.20
2022-12-20T11:37:37.032Z,2.10
2022-12-20T11:39:22.511Z,2.10
2022-12-20T11:41:05.441Z,2.10
2022-12-20T11:42:56.067Z,2.20
2022-12-20T11:44:48.560Z,2.20
2022-12-20T11:46:38.300Z,2.10
2022-12-20T11:48:33.305Z,2.10
2022-12-20T11:50:21.371Z,2.10
2022-12-20T11:52:04.159Z,2.10
2022-12-20T11:53:41.854Z,2.10
2022-12-20T11:55:21.756Z,2.10
2022-12-20T11:56:59.191Z,2.20
2022-12-20T11:58:38.883Z,2.20
2022-12-20T12:00:17.559Z,2.20
2022-12-20T12:01:55.521Z,2.30
2022-12-20T12:03:34.579Z,2.30
2022-12-20T12:05:16.868Z,2.40
2022-12-20T12:06:57.418Z,2.40
2022-12-20T12:08:39.858Z,2.40
2022-12-20T12:10:17.228Z,2.40
2022-12-20T12:12:06.620Z,2.40
2022-12-20T12:13:41.818Z,2.50
2022-12-20T12:15:29.630Z,2.60
2022-12-20T12:17:10.329Z,2.80
2022-12-20T12:18:43.573Z,2.90
2022-12-20T12:20:26.417Z,2.90
2022-12-20T12:22:04.415Z,2.80
2022-12-20T12:23:46.287Z,2.70
2022-12-20T12:25:20.135Z,2.50
2022-12-20T12:26:54.368Z,2.50
2022-12-20T12:28:27.756Z,2.40
2022-12-20T12:30:01.182Z,2.30
2022-12-20T12:31:40.540Z,2.30
2022-12-20T12:33:24.339Z,2.20
2022-12-20T12:35:26.959Z,2.20
2022-12-20T12:37:26.090Z,2.10
2022-12-20T12:39:31.809Z,2.10
2022-12-20T12:41:36.579Z,2.10
2022-12-20T12:43:24.912Z,2.10
2022-12-20T12:45:00.904Z,2.10
2022-12-20T12:46:37.686Z,2.10
2022-12-20T12:48:18.545Z,2.10
2022-12-20T12:49:54.523Z,2.10
2022-12-20T12:51:32.118Z,2.10
2022-12-20T12:53:09.084Z,2.00
2022-12-20T12:54:43.619Z,2.00
2022-12-20T12:56:45.595Z,2.00
2022-12-20T12:58:34.136Z,2.00
2022-12-20T13:00:49.233Z,2.00
2022-12-20T13:02:49.771Z,1.90
2022-12-20T13:04:26.767Z,1.90
2022-12-20T13:05:59.841Z,1.90
2022-12-20T13:07:44.568Z,1.90
2022-12-20T13:09:23.346Z,1.90
2022-12-20T13:11:00.606Z,1.90
2022-12-20T13:12:58.823Z,1.80
2022-12-20T13:14:51.445Z,1.80
2022-12-20T13:17:02.732Z,1.70
2022-12-20T13:18:27.897Z,1.70
2022-12-20T13:20:01.080Z,1.70
2022-12-20T13:21:39.009Z,1.70
2022-12-20T13:23:17.383Z,1.70
2022-12-20T13:24:56.415Z,1.70
2022-12-20T13:26:52.898Z,1.70
2022-12-20T13:28:45.081Z,1.70
2022-12-20T13:30:28.988Z,1.70
2022-12-20T13:32:02.572Z,1.70
2022-12-20T13:33:43.315Z,1.70
2022-12-20T13:35:30.889Z,1.70
2022-12-20T13:37:04.226Z,1.70
2022-12-20T13:38:57.429Z,1.70
2022-12-20T13:40:37.554Z,1.70
2022-12-20T13:42:34.335Z,1.80
2022-12-20T13:44:34.000Z,1.70
2022-12-20T13:46:15.276Z,1.70
2022-12-20T13:47:54.965Z,1.70
2022-12-20T13:49:33.394Z,1.80
2022-12-20T13:51:08.009Z,1.70
2022-12-20T13:52:44.794Z,1.80
2022-12-20T13:54:26.921Z,1.80
2022-12-20T13:56:20.472Z,1.70
2022-12-20T13:57:55.244Z,1.80
2022-12-20T13:59:33.632Z,1.80
2022-12-20T14:01:10.757Z,1.80
2022-12-20T14:02:45.141Z,1.80
2022-12-20T14:04:19.717Z,1.80
2022-12-20T14:05:59.074Z,1.80
2022-12-20T14:07:33.840Z,1.80
2022-12-20T14:09:31.977Z,1.90
2022-12-20T14:11:12.674Z,1.90
2022-12-20T14:12:47.130Z,1.90
2022-12-20T14:14:20.165Z,1.90
2022-12-20T14:15:54.519Z,1.80
2022-12-20T14:17:28.950Z,1.90
2022-12-20T14:19:04.148Z,1.90
2022-12-20T14:20:38.563Z,1.90
2022-12-20T14:22:13.636Z,1.90
2022-12-20T14:23:50.693Z,2.00
2022-12-20T14:25:31.437Z,1.90
2022-12-20T14:27:04.763Z,2.00
2022-12-20T14:28:40.535Z,2.00
2022-12-20T14:30:43.258Z,2.00
2022-12-20T14:32:20.584Z,1.90
2022-12-20T14:34:03.373Z,1.90
2022-12-20T14:35:36.449Z,1.90
2022-12-20T14:37:31.379Z,1.90
2022-12-20T14:39:27.228Z,1.90
2022-12-20T14:41:00.359Z,1.90
2022-12-20T14:42:35.936Z,1.90
2022-12-20T14:44:21.300Z,1.90
2022-12-20T14:46:09.567Z,1.90
2022-12-20T14:47:51.405Z,1.90
2022-12-20T14:49:28.043Z,1.90
2022-12-20T14:51:05.269Z,1.90
2022-12-20T14:52:40.600Z,1.90
2022-12-20T14:54:56.225Z,1.90
2022-12-20T14:56:18.466Z,1.90
2022-12-20T14:57:53.915Z,1.90
2022-12-20T14:59:29.195Z,1.90
2022-12-20T15:01:04.825Z,1.90
2022-12-20T15:02:42.745Z,1.90
2022-12-20T15:04:25.414Z,1.90
2022-12-20T15:05:59.985Z,1.90
2022-12-20T15:07:33.230Z,1.80
2022-12-20T15:09:07.705Z,1.90
2022-12-20T15:10:42.719Z,1.90
2022-12-20T15:12:16.579Z,1.90
2022-12-20T15:13:52.946Z,1.90
2022-12-20T15:15:29.923Z,1.90
2022-12-20T15:17:04.108Z,1.90
2022-12-20T15:18:37.176Z,1.90
2022-12-20T15:20:13.937Z,1.90
2022-12-20T15:21:47.312Z,1.90
2022-12-20T15:23:22.816Z,2.00
2022-12-20T15:24:58.344Z,1.90
2022-12-20T15:26:32.179Z,1.90
2022-12-20T15:28:14.671Z,2.00
2022-12-20T15:29:47.925Z,1.90
2022-12-20T15:31:30.681Z,2.00
2022-12-20T15:33:05.895Z,1.90
2022-12-20T15:34:40.116Z,1.90
2022-12-20T15:36:18.720Z,1.90
2022-12-20T15:37:51.752Z,1.90
2022-12-20T15:39:25.709Z,1.90
2022-12-20T15:41:04.715Z,1.90
2022-12-20T15:42:38.016Z,2.00
2022-12-20T15:44:16.175Z,2.00
2022-12-20T15:45:53.106Z,2.00
2022-12-20T15:47:26.193Z,2.00
2022-12-20T15:48:59.338Z,2.00
2022-12-20T15:50:32.391Z,2.00
2022-12-20T15:52:05.812Z,2.00
2022-12-20T15:53:38.876Z,2.00
2022-12-20T15:55:12.189Z,2.00
2022-12-20T15:56:46.585Z,2.00
2022-12-20T15:58:19.689Z,2.00
2022-12-20T16:00:03.231Z,2.00
2022-12-20T16:01:44.648Z,2.00
2022-12-20T16:03:21.439Z,2.00
2022-12-20T16:04:55.692Z,2.00
2022-12-20T16:06:28.791Z,2.00
2022-12-20T16:08:02.100Z,2.00
2022-12-20T16:09:35.144Z,2.00
2022-12-20T16:11:14.056Z,2.00
2022-12-20T16:12:48.541Z,2.00
2022-12-20T16:14:22.727Z,2.00
2022-12-20T16:15:55.880Z,2.00
2022-12-20T16:17:29.040Z,2.00
2022-12-20T16:19:03.729Z,2.00
2022-12-20T16:20:36.811Z,2.00
2022-12-20T16:22:16.771Z,2.10
2022-12-20T16:23:52.045Z,2.00
2022-12-20T16:25:28.087Z,2.00
2022-12-20T16:27:01.331Z,2.10
2022-12-20T16:28:35.738Z,2.10
2022-12-20T16:30:10.102Z,2.00
2022-12-20T16:31:43.775Z,2.00
2022-12-20T16:33:23.267Z,2.00
2022-12-20T16:34:56.301Z,2.00
2022-12-20T16:36:29.559Z,2.00
2022-12-20T16:38:02.658Z,2.00
2022-12-20T16:39:35.908Z,2.10
2022-12-20T16:41:14.613Z,2.00
2022-12-20T16:42:47.715Z,2.00
2022-12-20T16:44:23.015Z,2.00
2022-12-20T16:45:56.075Z,2.00
2022-12-20T16:47:29.109Z,1.90
2022-12-20T16:49:02.841Z,1.90
2022-12-20T16:50:43.367Z,1.90
2022-12-20T16:52:18.776Z,1.90
2022-12-20T16:54:17.927Z,1.90
2022-12-20T16:55:45.584Z,1.80
2022-12-20T16:57:18.693Z,1.90
2022-12-20T16:59:17.953Z,1.90
2022-12-20T17:00:46.424Z,1.90
2022-12-20T17:02:25.511Z,1.90
2022-12-20T17:03:58.849Z,1.80
2022-12-20T17:05:35.200Z,1.90
2022-12-20T17:07:08.233Z,1.90
2022-12-20T17:10:32.961Z,1.80
2022-12-20T17:12:10.835Z,1.90
2022-12-20T17:13:44.392Z,1.90
2022-12-20T17:15:23.904Z,1.80
2022-12-20T17:16:58.438Z,1.90
2022-12-20T17:18:31.543Z,1.80
2022-12-20T17:20:09.510Z,1.90
2022-12-20T17:23:44.044Z,1.80
2022-12-20T17:25:23.829Z,1.80
2022-12-20T17:26:56.874Z,1.90
2022-12-20T17:28:30.009Z,1.90
2022-12-20T17:30:03.054Z,1.90
2022-12-20T17:31:39.173Z,1.90
2022-12-20T17:33:16.384Z,1.90
2022-12-20T17:34:50.009Z,1.90
2022-12-20T17:36:23.692Z,1.90
2022-12-20T17:37:57.687Z,1.80
2022-12-20T17:39:30.710Z,1.80
2022-12-20T17:41:03.806Z,1.80
2022-12-20T17:42:36.840Z,1.80
2022-12-20T17:44:18.116Z,1.80
2022-12-20T17:45:51.186Z,1.80
2022-12-20T17:47:24.275Z,1.80
2022-12-20T17:49:00.042Z,1.80
2022-12-20T17:50:33.118Z,1.80
2022-12-20T17:52:06.173Z,1.80
2022-12-20T17:53:39.244Z,1.80
2022-12-20T17:55:17.308Z,1.80
2022-12-20T17:56:50.771Z,1.80
2022-12-20T17:58:23.856Z,1.80
2022-12-20T17:59:58.154Z,1.80
2022-12-20T18:01:33.224Z,1.80
2022-12-20T18:03:06.733Z,1.80
2022-12-20T18:04:41.433Z,1.80
2022-12-20T18:06:14.713Z,1.80
2022-12-20T18:07:52.164Z,1.80
2022-12-20T18:09:25.226Z,1.80
2022-12-20T18:10:59.520Z,1.80
2022-12-20T18:12:37.264Z,1.90
2022-12-20T18:14:11.522Z,1.90
2022-12-20T18:15:44.605Z,1.90
2022-12-20T18:17:17.817Z,1.90
2022-12-20T18:18:51.113Z,1.90
2022-12-20T18:20:25.535Z,1.90
2022-12-20T18:22:00.039Z,1.90
2022-12-20T18:23:33.776Z,1.90
2022-12-20T18:25:08.628Z,1.90
2022-12-20T18:26:41.851Z,2.00
2022-12-20T18:28:15.142Z,1.90
2022-12-20T18:29:48.169Z,1.90
2022-12-20T18:31:24.883Z,1.90
2022-12-20T18:32:58.072Z,1.90
2022-12-20T18:34:31.138Z,1.90
2022-12-20T18:36:08.686Z,1.90
2022-12-20T18:37:41.758Z,1.90
2022-12-20T18:39:15.095Z,1.90
2022-12-20T18:40:48.160Z,1.80
2022-12-20T18:42:21.371Z,1.80
2022-12-20T18:43:59.442Z,1.80
2022-12-20T18:45:34.943Z,1.80
2022-12-20T18:47:08.069Z,1.80
2022-12-20T18:48:41.307Z,1.80
2022-12-20T18:50:14.443Z,1.80
2022-12-20T18:51:48.915Z,1.80
2022-12-20T18:53:21.940Z,1.80
2022-12-20T18:54:55.024Z,1.80
2022-12-20T18:56:30.818Z,1.90
2022-12-20T18:58:03.946Z,1.80
2022-12-20T18:59:37.007Z,1.80
2022-12-20T19:01:16.334Z,1.80
2022-12-20T19:02:49.642Z,1.80
2022-12-20T19:04:25.076Z,1.80
2022-12-20T19:05:59.426Z,1.80
2022-12-20T19:07:33.878Z,1.70
2022-12-20T19:09:09.546Z,1.80
2022-12-20T19:10:42.590Z,1.80
2022-12-20T19:12:15.628Z,1.80
2022-12-20T19:13:49.188Z,1.80
2022-12-20T19:15:22.219Z,1.70
2022-12-20T19:16:55.373Z,1.80
2022-12-20T19:18:28.525Z,1.80
2022-12-20T19:20:01.750Z,1.80
2022-12-20T19:21:37.490Z,1.70
2022-12-20T19:23:11.987Z,1.80
2022-12-20T19:24:45.040Z,1.80
2022-12-20T19:26:19.455Z,1.80
2022-12-20T19:27:52.471Z,1.90
2022-12-20T19:29:25.771Z,1.90
2022-12-20T19:30:59.166Z,1.90
2022-12-20T19:32:32.507Z,1.90
2022-12-20T19:34:07.909Z,1.90
2022-12-20T19:35:56.879Z,1.90
2022-12-20T19:37:37.007Z,1.90
2022-12-20T19:39:15.934Z,1.90
2022-12-20T19:40:53.463Z,1.90
2022-12-20T19:42:26.527Z,1.90
2022-12-20T19:44:00.039Z,1.90
2022-12-20T19:45:33.172Z,1.80
2022-12-20T19:47:06.485Z,1.90
2022-12-20T19:48:39.675Z,1.90
2022-12-20T19:50:13.318Z,1.80
2022-12-20T19:51:46.346Z,1.80
2022-12-20T19:53:19.459Z,1.90
2022-12-20T19:54:53.908Z,1.90
2022-12-20T19:56:29.546Z,1.90
2022-12-20T19:58:02.641Z,1.80
2022-12-20T19:59:35.728Z,1.80
2022-12-20T20:01:10.069Z,1.80
2022-12-20T20:02:43.488Z,1.80
2022-12-20T20:04:17.035Z,1.80
2022-12-20T20:05:50.135Z,1.80
2022-12-20T20:07:23.183Z,1.80
2022-12-20T20:08:59.614Z,1.90
2022-12-20T20:10:34.153Z,1.80
2022-12-20T20:12:07.812Z,1.80
2022-12-20T20:13:41.788Z,1.80
2022-12-20T20:15:14.891Z,1.80
2022-12-20T20:16:48.425Z,1.80
2022-12-20T20:18:21.783Z,1.90
2022-12-20T20:19:54.925Z,1.90
2022-12-20T20:21:28.026Z,1.90
2022-12-20T20:23:01.187Z,1.90
2022-12-20T20:24:34.213Z,1.90
2022-12-20T20:26:10.867Z,1.90
2022-12-20T20:27:43.944Z,1.80
2022-12-20T20:29:17.021Z,1.90
2022-12-20T20:30:50.844Z,1.90
2022-12-20T20:32:23.927Z,1.90
2022-12-20T20:33:58.834Z,1.90
2022-12-20T20:35:31.877Z,1.90
2022-12-20T20:37:05.102Z,1.90
2022-12-20T20:38:38.163Z,1.90
2022-12-20T20:40:12.525Z,1.90
2022-12-20T20:41:47.014Z,1.90
2022-12-20T20:43:20.772Z,1.90
2022-12-20T20:44:53.841Z,1.90
2022-12-20T20:46:26.944Z,1.80
2022-12-20T20:48:05.610Z,1.90
2022-12-20T20:49:39.198Z,1.90
2022-12-20T20:51:12.721Z,1.80
2022-12-20T20:52:45.939Z,1.90
2022-12-20T20:54:19.017Z,1.80
2022-12-20T20:55:52.063Z,1.80
2022-12-20T20:57:26.464Z,1.80
2022-12-20T20:59:05.278Z,1.80
2022-12-20T21:00:40.364Z,1.70
2022-12-20T21:02:14.899Z,1.70
2022-12-20T21:03:48.704Z,1.70
2022-12-20T21:07:15.038Z,1.70
2022-12-20T21:08:48.189Z,1.80
2022-12-20T21:10:21.468Z,1.80
2022-12-20T21:11:54.719Z,1.90
2022-12-20T21:13:29.259Z,1.90
2022-12-20T21:15:22.104Z,1.90
2022-12-20T21:16:55.897Z,1.90
2022-12-20T21:18:29.020Z,1.90
2022-12-20T21:20:02.049Z,2.00
2022-12-20T21:21:35.099Z,1.90
2022-12-20T21:23:08.197Z,1.90
2022-12-20T21:24:41.277Z,1.90
2022-12-20T21:26:15.372Z,1.90
2022-12-20T21:27:48.430Z,2.00
2022-12-20T21:29:23.643Z,1.90
2022-12-20T21:31:01.329Z,1.90
2022-12-20T21:32:34.406Z,1.90
2022-12-20T21:34:07.502Z,1.90
2022-12-20T21:35:40.535Z,1.90
2022-12-20T21:37:13.721Z,1.90
2022-12-20T21:38:50.220Z,1.90